Time;durP1;ratioP1;P1;durP2;ratioP2;P2;SDS_P1;SDS_P2;PMS_P1;PMS_P2;Temp;Humidity;BMP_temperature;BMP_pressure;BME280_temperature;BME280_humidity;BME280_pressure;Samples;Min_cycle;Max_cycle;Signal;HPM_P1;HPM_P2
2023/12/12 00:02:05;;;;;;;;;;;;;;;12.07;81.27;98967.69;7355580;19;19919;-59
2023/12/12 00:04:30;;;;;;;;;;;;;;;12.06;81.36;98960.75;7362287;19;19929;-60
2023/12/12 00:06:55;;;;;;;;;;;;;;;12.04;81.58;98970.47;7365811;19;20387;-60
2023/12/12 00:09:21;;;;;;;;;;;;;;;12.03;81.41;98965.31;7363944;19;19919;-60
2023/12/12 00:11:46;;;;;;;;;;;;;;;12.00;81.50;98966.31;7364494;19;19918;-60
2023/12/12 00:14:11;;;;;;;;;;;;;;;12.00;81.29;98965.50;7364215;19;20562;-60
2023/12/12 00:16:37;;;;;;;;;;;;;;;11.98;81.51;98962.97;7357196;19;19930;-60
2023/12/12 00:19:02;;;;;;;;;;;;;;;11.97;81.33;98958.66;7362422;19;19923;-60
2023/12/12 00:21:28;;;;;;;;;;;;;;;11.96;81.28;98959.56;7362564;19;20390;-60
2023/12/12 00:23:53;;;;;;;;;;;;;;;11.95;81.29;98963.97;7367151;19;19923;-61
2023/12/12 00:26:18;;;;;;;;;;;;;;;11.94;81.39;98956.22;7360521;19;19919;-60
2023/12/12 00:28:43;;;;;;;;;;;;;;;11.94;81.72;98953.59;7366661;19;20385;-60
2023/12/12 00:31:09;;;;;;;;;;;;;;;11.92;81.42;98947.63;7362656;19;20739;-60
2023/12/12 00:33:34;;;;;;;;;;;;;;;11.91;81.29;98941.56;7363907;19;19926;-60
2023/12/12 00:36:00;;;;;;;;;;;;;;;11.89;81.19;98939.94;7365301;19;19918;-61
2023/12/12 00:38:29;;;;;;;;;;;;;;;11.88;81.48;98933.03;7360396;19;20475;-61
2023/12/12 00:40:54;;;;;;;;;;;;;;;11.85;81.58;98934.03;7359767;19;19922;-60
2023/12/12 00:43:19;;;;;;;;;;;;;;;11.84;81.01;98934.13;7361591;19;19927;-60
2023/12/12 00:45:45;;;;;;;;;;;;;;;11.81;80.93;98934.25;7358485;19;19993;-60
2023/12/12 00:48:10;;;;;;;;;;;;;;;11.80;81.45;98932.56;7363081;19;19926;-60
2023/12/12 00:50:35;;;;;;;;;;;;;;;11.77;81.37;98938.00;7365348;19;19918;-60
2023/12/12 00:53:01;;;;;;;;;;;;;;;11.74;81.41;98930.31;7364721;19;19919;-60
2023/12/12 00:55:26;;;;;;;;;;;;;;;11.72;81.45;98921.72;7358371;19;20360;-61
2023/12/12 00:57:51;;;;;;;;;;;;;;;11.69;81.22;98927.94;7363263;19;19995;-60
2023/12/12 01:00:17;;;;;;;;;;;;;;;11.67;81.32;98928.03;7358791;19;19922;-61
2023/12/12 01:02:42;;;;;;;;;;;;;;;11.65;80.79;98927.25;7361286;19;19937;-60
2023/12/12 01:05:07;;;;;;;;;;;;;;;11.62;80.56;98924.81;7356530;19;19996;-60
2023/12/12 01:07:33;;;;;;;;;;;;;;;11.59;80.95;98917.16;7364106;19;19996;-61
2023/12/12 01:09:58;;;;;;;;;;;;;;;11.56;80.61;98909.50;7364306;19;20171;-60
2023/12/12 01:12:25;;;;;;;;;;;;;;;11.52;80.23;98902.75;7357626;19;20363;-60
2023/12/12 01:14:50;;;;;;;;;;;;;;;11.49;80.39;98896.81;7364944;19;19915;-60
2023/12/12 01:17:15;;;;;;;;;;;;;;;11.45;80.52;98898.75;7368940;19;20653;-60
2023/12/12 01:19:40;;;;;;;;;;;;;;;11.43;80.24;98903.25;7356446;19;20641;-60
2023/12/12 01:22:06;;;;;;;;;;;;;;;11.39;80.24;98897.31;7362085;19;19926;-60
2023/12/12 01:24:31;;;;;;;;;;;;;;;11.37;79.69;98896.59;7358572;19;19974;-60
2023/12/12 01:26:56;;;;;;;;;;;;;;;11.33;79.96;98892.44;7362831;19;19919;-60
2023/12/12 01:29:22;;;;;;;;;;;;;;;11.32;79.80;98887.31;7359234;19;20844;-60
2023/12/12 01:31:47;;;;;;;;;;;;;;;11.30;80.04;98892.59;7361872;19;19915;-60
2023/12/12 01:34:12;;;;;;;;;;;;;;;11.28;80.35;98891.84;7359006;19;19929;-60
2023/12/12 01:36:38;;;;;;;;;;;;;;;11.26;80.44;98890.25;7365665;19;19935;-60
2023/12/12 01:39:04;;;;;;;;;;;;;;;11.24;80.13;98889.47;7360341;19;19925;-61
2023/12/12 01:41:29;;;;;;;;;;;;;;;11.22;80.32;98888.75;7361877;19;20372;-60
2023/12/12 01:43:55;;;;;;;;;;;;;;;11.21;80.34;98892.28;7362410;19;19955;-60
2023/12/12 01:46:20;;;;;;;;;;;;;;;11.20;80.43;98890.56;7362182;19;19926;-61
2023/12/12 01:48:47;;;;;;;;;;;;;;;11.17;80.93;98897.66;7363009;19;19919;-61
2023/12/12 01:51:13;;;;;;;;;;;;;;;11.16;80.72;98885.53;7359566;19;19914;-61
2023/12/12 01:53:50;;;;;;;;;;;;;;;11.16;81.16;98885.53;7364671;19;20027;-60
2023/12/12 01:56:15;;;;;;;;;;;;;;;11.15;81.08;98891.69;7364768;19;19914;-60
2023/12/12 01:58:42;;;;;;;;;;;;;;;11.13;81.24;98890.91;7360240;19;20699;-60
2023/12/12 02:01:08;;;;;;;;;;;;;;;11.14;81.12;98887.38;7358769;19;19922;-60
2023/12/12 02:03:34;;;;;;;;;;;;;;;11.13;80.96;98879.63;7361680;19;19966;-61
2023/12/12 02:05:59;;;;;;;;;;;;;;;11.13;80.87;98877.84;7357071;19;19966;-61
2023/12/12 02:08:25;;;;;;;;;;;;;;;11.10;81.19;98870.19;7361112;19;20618;-61
2023/12/12 02:10:50;;;;;;;;;;;;;;;11.10;80.79;98870.19;7361188;19;19926;-61
2023/12/12 02:13:16;;;;;;;;;;;;;;;11.10;80.69;98864.97;7362698;19;19922;-61
2023/12/12 02:15:41;;;;;;;;;;;;;;;11.09;81.13;98868.47;7353845;19;19914;-61
2023/12/12 02:18:06;;;;;;;;;;;;;;;11.09;80.74;98868.47;7360672;19;19937;-60
2023/12/12 02:20:32;;;;;;;;;;;;;;;11.09;80.94;98865.03;7364957;19;19986;-60
2023/12/12 02:22:57;;;;;;;;;;;;;;;11.09;80.87;98867.66;7370844;19;19925;-61
2023/12/12 02:25:22;;;;;;;;;;;;;;;11.08;80.83;98866.81;7365143;19;19911;-61
2023/12/12 02:27:47;;;;;;;;;;;;;;;11.08;80.75;98861.59;7358486;19;19931;-61
2023/12/12 02:30:14;;;;;;;;;;;;;;;11.08;81.20;98858.13;7360349;19;19926;-60
2023/12/12 02:32:39;;;;;;;;;;;;;;;11.09;81.13;98851.97;7359442;19;19927;-60
2023/12/12 02:35:05;;;;;;;;;;;;;;;11.08;81.09;98848.53;7361652;19;19922;-61
2023/12/12 02:37:30;;;;;;;;;;;;;;;11.08;81.44;98851.13;7361710;19;19968;-61
2023/12/12 02:39:55;;;;;;;;;;;;;;;11.08;81.38;98851.13;7360013;19;19927;-61
2023/12/12 02:42:20;;;;;;;;;;;;;;;11.09;81.10;98847.59;7362031;19;19927;-60
2023/12/12 02:44:46;;;;;;;;;;;;;;;11.12;81.17;98852.66;7352898;19;20299;-61
2023/12/12 02:47:11;;;;;;;;;;;;;;;11.12;81.46;98844.81;7360210;19;19925;-60
2023/12/12 02:49:36;;;;;;;;;;;;;;;11.11;81.44;98837.91;7367180;19;19919;-60
2023/12/12 02:52:01;;;;;;;;;;;;;;;11.12;81.45;98831.75;7363066;19;19963;-61
2023/12/12 02:54:27;;;;;;;;;;;;;;;11.12;80.98;98834.38;7360030;19;19935;-60
2023/12/12 02:56:52;;;;;;;;;;;;;;;11.13;81.08;98836.03;7356832;19;19974;-61
2023/12/12 02:59:17;;;;;;;;;;;;;;;11.12;81.30;98826.53;7358280;19;19970;-61
2023/12/12 03:01:43;;;;;;;;;;;;;;;11.13;81.40;98827.38;7359833;19;19922;-60
2023/12/12 03:04:08;;;;;;;;;;;;;;;11.13;80.85;98836.03;7362503;19;19949;-60
2023/12/12 03:06:33;;;;;;;;;;;;;;;11.11;81.30;98824.00;7358544;19;19923;-61
2023/12/12 03:08:59;;;;;;;;;;;;;;;11.12;81.30;98815.25;7363406;19;19915;-61
2023/12/12 03:11:24;;;;;;;;;;;;;;;11.09;81.35;98816.25;7364239;19;19926;-61
2023/12/12 03:13:49;;;;;;;;;;;;;;;11.08;80.85;98817.16;7363343;19;20685;-61
2023/12/12 03:16:14;;;;;;;;;;;;;;;11.06;81.13;98807.75;7366571;19;19949;-60
2023/12/12 03:18:40;;;;;;;;;;;;;;;11.05;81.33;98793.84;7362113;19;19918;-61
2023/12/12 03:21:05;;;;;;;;;;;;;;;11.03;81.30;98785.25;7357842;19;20621;-61
2023/12/12 03:23:31;;;;;;;;;;;;;;;11.03;81.34;98789.63;7356760;19;19978;-61
2023/12/12 03:25:56;;;;;;;;;;;;;;;11.01;81.31;98781.88;7341740;19;19915;-61
2023/12/12 03:28:21;;;;;;;;;;;;;;;11.00;81.33;98785.44;7359570;19;20288;-61
2023/12/12 03:30:46;;;;;;;;;;;;;;;10.99;80.88;98777.66;7368016;19;19930;-61
2023/12/12 03:33:12;;;;;;;;;;;;;;;10.97;81.37;98780.34;7368049;19;19919;-61
2023/12/12 03:35:37;;;;;;;;;;;;;;;10.94;81.25;98780.50;7373254;19;19998;-60
2023/12/12 03:38:02;;;;;;;;;;;;;;;10.93;81.10;98781.44;7367485;19;19939;-61
2023/12/12 03:40:27;;;;;;;;;;;;;;;10.90;81.37;98785.09;7368718;19;19923;-60
2023/12/12 03:42:53;;;;;;;;;;;;;;;10.89;80.89;98782.53;7369011;19;19915;-61
2023/12/12 03:45:18;;;;;;;;;;;;;;;10.85;80.97;98779.28;7363986;19;19919;-60
2023/12/12 03:47:44;;;;;;;;;;;;;;;10.84;80.75;98779.34;7375066;19;19922;-61
2023/12/12 03:50:09;;;;;;;;;;;;;;;10.82;80.73;98770.75;7363132;19;19938;-61
2023/12/12 03:52:34;;;;;;;;;;;;;;;10.79;80.93;98776.13;7370352;19;19923;-60
2023/12/12 03:55:00;;;;;;;;;;;;;;;10.77;80.58;98770.16;7366927;19;19950;-61
2023/12/12 03:57:25;;;;;;;;;;;;;;;10.76;81.03;98773.72;7365823;19;19957;-60
2023/12/12 03:59:50;;;;;;;;;;;;;;;10.74;80.77;98768.53;7369435;19;19926;-61
2023/12/12 04:02:15;;;;;;;;;;;;;;;10.74;80.84;98762.47;7366998;19;19939;-61
2023/12/12 04:04:41;;;;;;;;;;;;;;;10.72;80.53;98766.97;7368172;19;19918;-60
2023/12/12 04:07:06;;;;;;;;;;;;;;;10.71;80.47;98768.72;7359841;19;19923;-61
2023/12/12 04:09:31;;;;;;;;;;;;;;;10.69;80.90;98764.50;7363343;19;19922;-61
2023/12/12 04:11:56;;;;;;;;;;;;;;;10.68;81.10;98757.59;7366538;19;19922;-61
2023/12/12 04:14:22;;;;;;;;;;;;;;;10.67;81.12;98753.31;7369047;19;19919;-61
2023/12/12 04:16:47;;;;;;;;;;;;;;;10.67;80.95;98756.75;7367601;19;19914;-61
2023/12/12 04:19:13;;;;;;;;;;;;;;;10.65;80.68;98753.41;7335820;19;19994;-61
2023/12/12 04:21:41;;;;;;;;;;;;;;;10.63;80.89;98753.47;7364575;19;20315;-61
2023/12/12 04:24:06;;;;;;;;;;;;;;;10.62;80.96;98737.91;7366420;19;19915;-61
2023/12/12 04:26:31;;;;;;;;;;;;;;;10.62;81.00;98743.97;7375078;19;20631;-61
2023/12/12 04:28:57;;;;;;;;;;;;;;;10.60;81.05;98745.81;7370715;19;20558;-60
2023/12/12 04:31:22;;;;;;;;;;;;;;;10.59;80.93;98744.16;7368600;19;19939;-61
2023/12/12 04:33:47;;;;;;;;;;;;;;;10.58;81.19;98746.81;7364137;19;19926;-61
2023/12/12 04:36:14;;;;;;;;;;;;;;;10.54;81.21;98735.72;7364464;19;19947;-61
2023/12/12 04:38:39;;;;;;;;;;;;;;;10.53;80.79;98749.66;7364427;19;20697;-61
2023/12/12 04:41:04;;;;;;;;;;;;;;;10.51;81.04;98746.31;7366679;19;19915;-61
2023/12/12 04:43:30;;;;;;;;;;;;;;;10.49;81.07;98742.94;7367801;19;19921;-61
2023/12/12 04:45:55;;;;;;;;;;;;;;;10.47;81.11;98744.78;7374208;19;19927;-61
2023/12/12 04:48:20;;;;;;;;;;;;;;;10.43;81.11;98740.66;7366994;19;20367;-61
2023/12/12 04:50:46;;;;;;;;;;;;;;;10.41;81.13;98733.84;7367089;19;19918;-61
2023/12/12 04:53:11;;;;;;;;;;;;;;;10.38;80.91;98743.50;7368500;19;19954;-60
2023/12/12 04:55:36;;;;;;;;;;;;;;;10.35;80.86;98735.00;7366804;19;19918;-60
2023/12/12 04:58:02;;;;;;;;;;;;;;;10.31;80.65;98734.31;7368911;19;20911;-61
2023/12/12 05:00:27;;;;;;;;;;;;;;;10.31;81.00;98738.69;7362514;19;19918;-61
2023/12/12 05:02:52;;;;;;;;;;;;;;;10.27;80.62;98740.63;7334842;19;20402;-61
2023/12/12 05:05:18;;;;;;;;;;;;;;;10.25;81.04;98733.81;7365739;19;19930;-61
2023/12/12 05:07:43;;;;;;;;;;;;;;;10.23;80.72;98739.06;7363844;19;20340;-61
2023/12/12 05:10:08;;;;;;;;;;;;;;;10.20;80.61;98738.41;7366260;19;19919;-61
2023/12/12 05:12:34;;;;;;;;;;;;;;;10.17;80.96;98735.94;7366295;19;19923;-60
2023/12/12 05:14:59;;;;;;;;;;;;;;;10.14;80.93;98732.59;7364632;19;20284;-61
2023/12/12 05:17:25;;;;;;;;;;;;;;;10.11;80.67;98737.94;7368967;19;19919;-61
2023/12/12 05:19:50;;;;;;;;;;;;;;;10.08;80.55;98740.69;7367539;19;19966;-61
2023/12/12 05:22:15;;;;;;;;;;;;;;;9.96;80.45;98720.50;7365952;19;20728;-61
2023/12/12 05:24:41;;;;;;;;;;;;;;;10.03;80.55;98739.25;7366976;19;19922;-61
2023/12/12 05:27:06;;;;;;;;;;;;;;;9.99;80.70;98730.78;7363001;19;20329;-61
2023/12/12 05:29:32;;;;;;;;;;;;;;;9.99;81.07;98730.78;7367258;19;19956;-61
2023/12/12 05:31:57;;;;;;;;;;;;;;;9.97;81.04;98732.59;7361528;19;19937;-61
2023/12/12 05:34:22;;;;;;;;;;;;;;;9.96;80.68;98728.31;7366869;19;19957;-61
2023/12/12 05:36:48;;;;;;;;;;;;;;;9.94;80.65;98724.94;7364946;19;19939;-61
2023/12/12 05:39:13;;;;;;;;;;;;;;;9.93;80.88;98725.84;7365303;19;20349;-60
2023/12/12 05:41:38;;;;;;;;;;;;;;;9.92;80.76;98720.72;7364788;19;20324;-61
2023/12/12 05:44:05;;;;;;;;;;;;;;;9.90;80.85;98723.41;7365049;19;19955;-60
2023/12/12 05:46:30;;;;;;;;;;;;;;;9.89;81.06;98721.75;7363611;19;20602;-60
2023/12/12 05:48:55;;;;;;;;;;;;;;;9.88;81.04;98725.25;7364173;19;20413;-61
2023/12/12 05:51:21;;;;;;;;;;;;;;;9.86;80.79;98724.50;7362771;19;19923;-60
2023/12/12 05:53:46;;;;;;;;;;;;;;;9.85;80.86;98720.22;7367406;19;19923;-60
2023/12/12 05:56:13;;;;;;;;;;;;;;;9.84;81.10;98727.19;7372220;19;19926;-59
2023/12/12 05:58:39;;;;;;;;;;;;;;;9.83;81.11;98720.28;7363803;19;19951;-60
2023/12/12 06:01:04;;;;;;;;;;;;;;;9.83;80.93;98716.81;7365020;19;20248;-60
2023/12/12 06:03:31;;;;;;;;;;;;;;;9.80;80.81;98714.38;7365212;19;19927;-61
2023/12/12 06:05:56;;;;;;;;;;;;;;;9.83;80.85;98709.00;7361094;19;20364;-60
2023/12/12 06:08:21;;;;;;;;;;;;;;;9.80;81.11;98711.78;7360761;19;19940;-60
2023/12/12 06:10:47;;;;;;;;;;;;;;;9.82;81.01;98705.56;7364364;19;19923;-61
2023/12/12 06:13:13;;;;;;;;;;;;;;;9.82;81.35;98705.56;7363285;19;20223;-60
2023/12/12 06:15:38;;;;;;;;;;;;;;;9.83;81.40;98706.38;7363255;19;19983;-61
2023/12/12 06:18:04;;;;;;;;;;;;;;;9.83;81.51;98704.66;7363411;19;20378;-60
2023/12/12 06:20:30;;;;;;;;;;;;;;;9.86;81.09;98703.63;7358380;19;19955;-61
2023/12/12 06:22:56;;;;;;;;;;;;;;;9.87;81.37;98705.31;7364042;19;20339;-60
2023/12/12 06:25:22;;;;;;;;;;;;;;;9.88;81.60;98709.59;7363530;19;19910;-60
2023/12/12 06:27:47;;;;;;;;;;;;;;;9.90;81.47;98713.00;7361573;19;20637;-61
2023/12/12 06:30:12;;;;;;;;;;;;;;;9.91;81.31;98708.63;7369579;19;19915;-60
2023/12/12 06:32:37;;;;;;;;;;;;;;;9.92;81.22;98716.34;7366809;19;20374;-60
2023/12/12 06:35:04;;;;;;;;;;;;;;;9.94;81.50;98711.91;7361876;19;19919;-61
2023/12/12 06:37:29;;;;;;;;;;;;;;;9.94;81.59;98709.31;7364962;19;20279;-61
2023/12/12 06:39:55;;;;;;;;;;;;;;;9.96;81.57;98712.66;7360599;19;19926;-61
2023/12/12 06:42:21;;;;;;;;;;;;;;;9.95;81.34;98703.16;7363564;19;19923;-60
2023/12/12 06:44:46;;;;;;;;;;;;;;;9.96;81.53;98709.22;7364644;19;20709;-61
2023/12/12 06:47:12;;;;;;;;;;;;;;;9.94;81.24;98704.09;7360815;19;19919;-61
2023/12/12 06:49:37;;;;;;;;;;;;;;;9.94;81.15;98706.69;7362007;19;20252;-61
2023/12/12 06:52:03;;;;;;;;;;;;;;;9.91;81.43;98693.81;7369277;19;19946;-61
2023/12/12 06:54:28;;;;;;;;;;;;;;;9.91;81.00;98701.63;7364448;19;19915;-60
2023/12/12 06:56:54;;;;;;;;;;;;;;;9.89;81.16;98700.88;7367299;19;19923;-60
2023/12/12 06:59:19;;;;;;;;;;;;;;;9.87;80.94;98697.50;7363462;19;20522;-60
2023/12/12 07:01:44;;;;;;;;;;;;;;;9.85;80.96;98699.34;7367749;19;19923;-61
2023/12/12 07:04:11;;;;;;;;;;;;;;;9.81;81.07;98698.66;7374058;19;19923;-60
2023/12/12 07:06:36;;;;;;;;;;;;;;;9.78;81.11;98697.97;7368193;19;19953;-61
2023/12/12 07:09:01;;;;;;;;;;;;;;;9.75;81.10;98698.97;7372048;19;19926;-61
2023/12/12 07:11:27;;;;;;;;;;;;;;;9.73;80.98;98699.97;7357350;19;19922;-61
2023/12/12 07:13:52;;;;;;;;;;;;;;;9.70;80.68;98694.94;7370825;19;19990;-61
2023/12/12 07:16:18;;;;;;;;;;;;;;;9.66;80.98;98694.22;7369631;19;19925;-61
2023/12/12 07:18:43;;;;;;;;;;;;;;;9.65;80.94;98691.72;7377617;19;20396;-61
2023/12/12 07:21:08;;;;;;;;;;;;;;;9.61;80.96;98697.06;7378376;19;20044;-60
2023/12/12 07:23:34;;;;;;;;;;;;;;;9.58;80.97;98697.25;7371632;19;20359;-60
2023/12/12 07:26:00;;;;;;;;;;;;;;;9.55;80.97;98692.19;7365913;19;19919;-61
2023/12/12 07:28:25;;;;;;;;;;;;;;;9.54;81.09;98705.28;7366760;19;19939;-61
2023/12/12 07:30:50;;;;;;;;;;;;;;;9.52;81.15;98702.75;7367498;19;19926;-60
2023/12/12 07:33:16;;;;;;;;;;;;;;;9.49;81.18;98692.50;7367557;19;20521;-61
2023/12/12 07:35:41;;;;;;;;;;;;;;;9.47;81.06;98699.53;7368577;19;20640;-61
2023/12/12 07:38:07;;;;;;;;;;;;;;;9.46;81.00;98700.44;7367421;19;22337;-61
2023/12/12 07:40:32;;;;;;;;;;;;;;;9.46;80.89;98704.81;7368529;19;20590;-61
2023/12/12 07:42:58;;;;;;;;;;;;;;;9.44;80.75;98707.50;7369086;19;19933;-61
2023/12/12 07:45:23;;;;;;;;;;;;;;;9.41;80.74;98705.03;7366757;19;19948;-61
2023/12/12 07:47:48;;;;;;;;;;;;;;;9.39;81.23;98704.28;7366518;19;19923;-61
2023/12/12 07:50:16;;;;;;;;;;;;;;;9.39;80.82;98706.91;7367373;19;19937;-61
2023/12/12 07:52:41;;;;;;;;;;;;;;;9.37;81.05;98713.94;7365904;19;20651;-61
2023/12/12 07:55:06;;;;;;;;;;;;;;;9.35;81.09;98705.34;7367752;19;19914;-61
2023/12/12 07:57:32;;;;;;;;;;;;;;;9.33;81.02;98708.06;7316758;19;19934;-60
2023/12/12 07:59:57;;;;;;;;;;;;;;;9.32;80.80;98705.50;7367411;19;20401;-60
2023/12/12 08:02:22;;;;;;;;;;;;;;;9.30;80.85;98717.75;7358915;19;19919;-61
2023/12/12 08:04:48;;;;;;;;;;;;;;;9.29;80.94;98711.72;7366763;19;19948;-60
2023/12/12 08:07:13;;;;;;;;;;;;;;;9.28;81.09;98709.19;7368039;19;20218;-61
2023/12/12 08:09:39;;;;;;;;;;;;;;;9.26;81.38;98700.59;7357088;19;20350;-61
2023/12/12 08:12:04;;;;;;;;;;;;;;;9.27;80.88;98697.06;7369828;19;20330;-61
2023/12/12 08:14:29;;;;;;;;;;;;;;;9.26;81.01;98705.81;7309191;19;20492;-61
2023/12/12 08:16:56;;;;;;;;;;;;;;;9.26;80.90;98708.41;7368813;19;20002;-60
2023/12/12 08:19:21;;;;;;;;;;;;;;;9.26;81.36;98708.41;7359648;19;19943;-61
2023/12/12 08:21:47;;;;;;;;;;;;;;;9.26;81.00;98700.59;7364467;19;19914;-61
2023/12/12 08:24:12;;;;;;;;;;;;;;;9.26;80.99;98711.00;7365235;19;19975;-61
2023/12/12 08:26:41;;;;;;;;;;;;;;;9.27;81.44;98707.47;7367745;19;19932;-61
2023/12/12 08:29:07;;;;;;;;;;;;;;;9.27;81.62;98712.69;7371178;19;20804;-61
2023/12/12 08:31:32;;;;;;;;;;;;;;;9.29;81.30;98713.47;7365994;19;19936;-61
2023/12/12 08:33:57;;;;;;;;;;;;;;;9.32;81.38;98713.31;7365320;19;20343;-61
2023/12/12 08:36:23;;;;;;;;;;;;;;;9.33;81.80;98712.41;7373108;19;19933;-61
2023/12/12 08:38:50;;;;;;;;;;;;;;;9.35;81.67;98716.63;7359324;19;19915;-61
2023/12/12 08:41:17;;;;;;;;;;;;;;;9.38;81.61;98720.84;7358096;19;19951;-61
2023/12/12 08:43:42;;;;;;;;;;;;;;;9.40;81.39;98719.00;7363955;19;20344;-61
2023/12/12 08:46:08;;;;;;;;;;;;;;;9.42;81.38;98722.34;7348057;19;19922;-61
2023/12/12 08:48:33;;;;;;;;;;;;;;;9.44;81.44;98725.75;7334078;19;19935;-61
2023/12/12 08:50:58;;;;;;;;;;;;;;;9.46;81.43;98721.28;7361237;19;19943;-61
2023/12/12 08:53:26;;;;;;;;;;;;;;;9.47;81.40;98717.75;7354424;19;19919;-61
2023/12/12 08:55:52;;;;;;;;;;;;;;;9.49;81.80;98718.53;7363625;19;19975;-61
2023/12/12 08:58:17;;;;;;;;;;;;;;;9.51;81.89;98711.47;7358515;19;20014;-61
2023/12/12 09:00:43;;;;;;;;;;;;;;;9.53;81.89;98717.47;7363953;19;19918;-60
2023/12/12 09:03:08;;;;;;;;;;;;;;;9.54;81.80;98706.13;7354807;19;19918;-61
2023/12/12 09:05:36;;;;;;;;;;;;;;;9.56;81.52;98706.03;7345932;19;20576;-63
2023/12/12 09:08:01;;;;;;;;;;;;;;;9.56;81.63;98699.06;7360351;19;19919;-65
2023/12/12 09:10:26;;;;;;;;;;;;;;;9.58;81.44;98702.47;7357707;19;22245;-64
2023/12/12 09:12:52;;;;;;;;;;;;;;;9.60;81.82;98705.81;7359354;19;19918;-65
2023/12/12 09:15:17;;;;;;;;;;;;;;;9.62;81.41;98697.91;7363507;19;19986;-64
2023/12/12 09:17:42;;;;;;;;;;;;;;;9.62;81.86;98703.97;7368051;19;20408;-63
2023/12/12 09:20:07;;;;;;;;;;;;;;;9.64;81.80;98710.88;7361714;19;19986;-63
2023/12/12 09:22:33;;;;;;;;;;;;;;;9.66;81.41;98709.88;7363925;19;19935;-64
2023/12/12 09:24:58;;;;;;;;;;;;;;;9.69;81.90;98714.94;7352161;19;19915;-63
2023/12/12 09:27:23;;;;;;;;;;;;;;;9.72;81.51;98713.91;7361158;19;19919;-62
2023/12/12 09:29:48;;;;;;;;;;;;;;;9.76;81.63;98710.25;7365000;19;19918;-63
2023/12/12 09:32:14;;;;;;;;;;;;;;;9.74;81.90;98707.72;7355273;19;20360;-64
2023/12/12 09:34:39;;;;;;;;;;;;;;;9.84;81.88;98719.38;7362610;19;19925;-64
2023/12/12 09:37:04;;;;;;;;;;;;;;;9.89;81.69;98721.75;7358358;19;19942;-65
2023/12/12 09:39:29;;;;;;;;;;;;;;;9.92;81.87;98718.97;7361902;19;19951;-66
2023/12/12 09:41:55;;;;;;;;;;;;;;;9.96;82.07;98723.09;7364136;19;19923;-65
2023/12/12 09:44:20;;;;;;;;;;;;;;;10.00;82.03;98724.63;7349017;19;19940;-63
2023/12/12 09:46:47;;;;;;;;;;;;;;;10.04;82.16;98726.16;7362418;19;19930;-63
2023/12/12 09:49:13;;;;;;;;;;;;;;;10.09;82.26;98723.31;7360136;19;20039;-62
2023/12/12 09:51:42;;;;;;;;;;;;;;;10.13;82.35;98710.00;7363061;19;19927;-64
2023/12/12 09:54:09;;;;;;;;;;;;;;;10.21;82.01;98721.81;7353754;19;20324;-65
2023/12/12 09:56:36;;;;;;;;;;;;;;;10.27;82.25;98726.75;7360399;19;19932;-63
2023/12/12 09:59:03;;;;;;;;;;;;;;;10.35;82.13;98719.38;7357281;19;19930;-62
2023/12/12 10:01:30;;;;;;;;;;;;;;;10.44;82.11;98723.22;7324285;19;19922;-64
2023/12/12 10:03:55;;;;;;;;;;;;;;;10.54;82.46;98724.41;7351896;19;20376;-65
2023/12/12 10:06:24;;;;;;;;;;;;;;;10.62;82.45;98728.28;7357232;19;20038;-64
2023/12/12 10:08:49;;;;;;;;;;;;;;;10.69;82.37;98720.97;7329139;19;19935;-64
2023/12/12 10:11:15;;;;;;;;;;;;;;;10.77;81.94;98715.34;7359041;19;19922;-64
2023/12/12 10:13:48;;;;;;;;;;;;;;;10.82;82.09;98724.59;7354798;19;19943;-64
2023/12/12 10:16:14;;;;;;;;;;;;;;;10.88;82.01;98728.63;7347829;19;19936;-64
2023/12/12 10:18:39;;;;;;;;;;;;;;;10.92;81.82;98740.59;7358532;19;20669;-64
2023/12/12 10:21:15;;;;;;;;;;;;;;;10.96;82.19;98731.69;7354465;19;19927;-64
2023/12/12 10:23:45;;;;;;;;;;;;;;;10.99;81.82;98736.72;7360551;19;19943;-64
2023/12/12 10:26:10;;;;;;;;;;;;;;;11.02;82.04;98740.94;7355798;19;19967;-64
2023/12/12 10:28:35;;;;;;;;;;;;;;;11.04;82.07;98734.69;7360162;19;20005;-64
2023/12/12 10:31:00;;;;;;;;;;;;;;;11.05;81.66;98736.38;7356795;19;20462;-64
2023/12/12 10:33:27;;;;;;;;;;;;;;;11.02;81.68;98728.72;7359688;19;19914;-64
2023/12/12 10:35:52;;;;;;;;;;;;;;;11.09;81.83;98737.88;7354173;19;19915;-64
2023/12/12 10:38:23;;;;;;;;;;;;;;;11.10;81.65;98734.38;7358226;19;19923;-64
2023/12/12 10:40:48;;;;;;;;;;;;;;;11.15;82.04;98748.00;7359200;19;20419;-65
2023/12/12 10:43:14;;;;;;;;;;;;;;;11.22;82.12;98745.03;7359646;19;19923;-65
2023/12/12 10:45:41;;;;;;;;;;;;;;;11.26;81.82;98746.56;7354398;19;19918;-64
2023/12/12 10:48:11;;;;;;;;;;;;;;;11.32;81.71;98748.81;7356960;19;20456;-64
2023/12/12 10:50:38;;;;;;;;;;;;;;;11.32;81.91;98733.13;7365144;19;19930;-65
2023/12/12 10:53:04;;;;;;;;;;;;;;;11.41;81.82;98756.13;7359350;19;19911;-65
2023/12/12 10:55:30;;;;;;;;;;;;;;;11.45;82.05;98755.00;7358140;19;19919;-64
2023/12/12 10:57:56;;;;;;;;;;;;;;;11.49;82.10;98751.28;7359077;19;19944;-64
2023/12/12 11:00:22;;;;;;;;;;;;;;;11.52;81.96;98755.53;7357181;19;19918;-65
2023/12/12 11:02:48;;;;;;;;;;;;;;;11.54;81.73;98745.81;7355730;19;19915;-65
2023/12/12 11:05:14;;;;;;;;;;;;;;;11.56;81.54;98757.88;7357031;19;19934;-65
2023/12/12 11:07:41;;;;;;;;;;;;;;;11.58;81.79;98744.69;7357157;19;19915;-65
2023/12/12 11:10:06;;;;;;;;;;;;;;;11.62;81.97;98752.28;7357460;19;19948;-65
2023/12/12 11:12:33;;;;;;;;;;;;;;;11.65;81.92;98752.09;7350149;19;19919;-65
2023/12/12 11:14:59;;;;;;;;;;;;;;;11.70;82.05;98752.66;7359450;19;19923;-65
2023/12/12 11:17:24;;;;;;;;;;;;;;;11.76;81.75;98748.00;7359612;19;19915;-65
2023/12/12 11:19:49;;;;;;;;;;;;;;;11.85;81.93;98752.72;7357685;19;19926;-65
2023/12/12 11:22:33;;;;;;;;;;;;;;;11.90;82.03;98740.22;7366445;19;19939;-65
2023/12/12 11:25:01;;;;;;;;;;;;;;;12.06;81.85;98748.00;7357769;19;19923;-65
2023/12/12 11:27:27;;;;;;;;;;;;;;;12.16;81.71;98744.72;7355394;19;19931;-65
2023/12/12 11:29:54;;;;;;;;;;;;;;;12.24;81.93;98740.81;7360873;19;19922;-65
2023/12/12 11:32:23;;;;;;;;;;;;;;;12.23;81.46;98723.44;7360059;19;19936;-65
2023/12/12 11:34:49;;;;;;;;;;;;;;;12.38;81.30;98744.28;7357094;19;19922;-65
2023/12/12 11:37:14;;;;;;;;;;;;;;;12.45;81.20;98742.13;7368941;19;19926;-65
2023/12/12 11:39:44;;;;;;;;;;;;;;;12.50;81.45;98740.06;7363918;19;19946;-65
2023/12/12 11:42:24;;;;;;;;;;;;;;;12.55;81.20;98742.41;7356598;19;19919;-65
2023/12/12 11:44:54;;;;;;;;;;;;;;;12.59;81.01;98744.72;7356439;19;19934;-64
2023/12/12 11:47:20;;;;;;;;;;;;;;;12.63;81.15;98748.84;7356732;19;19915;-65
2023/12/12 11:49:45;;;;;;;;;;;;;;;12.65;81.29;98748.75;7363676;19;19929;-65
2023/12/12 11:52:11;;;;;;;;;;;;;;;12.67;80.93;98747.72;7365670;19;19970;-65
2023/12/12 11:54:38;;;;;;;;;;;;;;;12.68;81.25;98738.91;7364874;19;19919;-65
2023/12/12 11:57:04;;;;;;;;;;;;;;;12.70;80.94;98744.06;7360383;19;19923;-65
2023/12/12 11:59:30;;;;;;;;;;;;;;;12.72;80.99;98748.28;7360886;19;19919;-65
2023/12/12 12:01:55;;;;;;;;;;;;;;;12.74;81.14;98753.41;7365009;19;19919;-65
2023/12/12 12:04:21;;;;;;;;;;;;;;;12.77;81.68;98752.34;7363230;19;20343;-65
2023/12/12 12:06:48;;;;;;;;;;;;;;;12.79;81.22;98745.25;7363684;19;19937;-65
2023/12/12 12:09:15;;;;;;;;;;;;;;;12.80;81.29;98741.69;7363512;19;20721;-65
2023/12/12 12:11:41;;;;;;;;;;;;;;;12.81;81.27;98738.97;7363425;19;20648;-65
2023/12/12 12:14:07;;;;;;;;;;;;;;;12.83;81.21;98747.59;7366978;19;20323;-65
2023/12/12 12:16:32;;;;;;;;;;;;;;;12.83;81.43;98742.34;7366737;19;19919;-65
2023/12/12 12:18:57;;;;;;;;;;;;;;;12.85;81.50;98739.63;7363713;19;20625;-65
2023/12/12 12:21:24;;;;;;;;;;;;;;;12.88;81.48;98742.06;7367280;19;19922;-65
2023/12/12 12:23:49;;;;;;;;;;;;;;;12.90;81.60;98748.03;7366698;19;20561;-65
2023/12/12 12:26:14;;;;;;;;;;;;;;;12.92;81.61;98743.53;7367207;19;20325;-65
2023/12/12 12:28:40;;;;;;;;;;;;;;;12.92;81.53;98733.88;7358955;19;19914;-65
2023/12/12 12:31:06;;;;;;;;;;;;;;;12.94;81.23;98736.44;7364825;19;19923;-65
2023/12/12 12:33:35;;;;;;;;;;;;;;;12.93;81.38;98735.59;7365168;19;20341;-65
2023/12/12 12:36:01;;;;;;;;;;;;;;;12.93;81.36;98740.00;7363936;19;19922;-65
2023/12/12 12:38:28;;;;;;;;;;;;;;;12.95;81.04;98745.97;7363555;19;19919;-65
2023/12/12 12:40:53;;;;;;;;;;;;;;;12.94;81.24;98739.06;7364653;19;20048;-65
2023/12/12 12:43:19;;;;;;;;;;;;;;;12.95;81.51;98746.81;7363208;19;19982;-65